sensor_id;sensor_type;location;lat;lon;timestamp;pressure;altitude;pressure_sealevel;temperature;humidity
85669;BME280;76101;44.794;10.344;2024-02-14T00:02:22;101683.22;;;10.91;56.54
85669;BME280;76101;44.794;10.344;2024-02-14T00:05:22;101685.19;;;10.89;56.65
85669;BME280;76101;44.794;10.344;2024-02-14T00:08:24;101695.81;;;10.81;56.46
85669;BME280;76101;44.794;10.344;2024-02-14T00:11:25;101689.66;;;10.64;56.39
85669;BME280;76101;44.794;10.344;2024-02-14T00:14:25;101694.47;;;10.61;56.19
85669;BME280;76101;44.794;10.344;2024-02-14T00:17:25;101691.81;;;10.61;55.97
85669;BME280;76101;44.794;10.344;2024-02-14T00:20:26;101698.13;;;10.60;55.98
85669;BME280;76101;44.794;10.344;2024-02-14T00:23:26;101694.47;;;10.69;55.95
85669;BME280;76101;44.794;10.344;2024-02-14T00:26:27;101700.78;;;10.76;55.65
85669;BME280;76101;44.794;10.344;2024-02-14T00:29:37;101701.25;;;10.63;56.09
85669;BME280;76101;44.794;10.344;2024-02-14T00:32:37;101697.75;;;10.54;56.20
85669;BME280;76101;44.794;10.344;2024-02-14T00:35:38;101700.25;;;10.56;56.67
85669;BME280;76101;44.794;10.344;2024-02-14T00:38:38;101710.34;;;10.52;56.63
85669;BME280;76101;44.794;10.344;2024-02-14T00:41:39;101710.50;;;10.43;57.04
85669;BME280;76101;44.794;10.344;2024-02-14T00:44:39;101707.53;;;10.54;56.98
85669;BME280;76101;44.794;10.344;2024-02-14T00:47:40;101717.78;;;10.57;57.00
85669;BME280;76101;44.794;10.344;2024-02-14T00:50:40;101713.69;;;10.63;57.04
85669;BME280;76101;44.794;10.344;2024-02-14T00:53:41;101708.22;;;10.72;56.91
85669;BME280;76101;44.794;10.344;2024-02-14T00:56:41;101715.00;;;10.75;57.31
85669;BME280;76101;44.794;10.344;2024-02-14T00:59:41;101716.69;;;10.84;55.93
85669;BME280;76101;44.794;10.344;2024-02-14T01:02:42;101716.00;;;10.90;56.12
85669;BME280;76101;44.794;10.344;2024-02-14T01:05:43;101711.22;;;10.94;55.15
85669;BME280;76101;44.794;10.344;2024-02-14T01:08:44;101716.69;;;10.92;55.49
85669;BME280;76101;44.794;10.344;2024-02-14T01:11:44;101716.69;;;10.76;55.92
85669;BME280;76101;44.794;10.344;2024-02-14T01:14:45;101723.09;;;10.57;56.70
85669;BME280;76101;44.794;10.344;2024-02-14T01:17:45;101717.78;;;10.49;57.06
85669;BME280;76101;44.794;10.344;2024-02-14T01:21:08;101723.06;;;10.41;57.31
85669;BME280;76101;44.794;10.344;2024-02-14T01:24:08;101720.22;;;10.26;57.59
85669;BME280;76101;44.794;10.344;2024-02-14T01:27:09;101730.50;;;10.29;57.45
85669;BME280;76101;44.794;10.344;2024-02-14T01:30:10;101733.47;;;10.34;57.38
85669;BME280;76101;44.794;10.344;2024-02-14T01:33:10;101736.78;;;10.36;57.24
85669;BME280;76101;44.794;10.344;2024-02-14T01:36:12;101727.69;;;10.31;57.24
85669;BME280;76101;44.794;10.344;2024-02-14T01:39:12;101726.84;;;10.38;57.35
85669;BME280;76101;44.794;10.344;2024-02-14T01:42:12;101733.16;;;10.37;57.37
85669;BME280;76101;44.794;10.344;2024-02-14T01:45:13;101725.56;;;10.42;57.59
85669;BME280;76101;44.794;10.344;2024-02-14T01:48:13;101725.41;;;10.52;57.41
85669;BME280;76101;44.794;10.344;2024-02-14T01:51:22;101718.97;;;10.63;57.67
85669;BME280;76101;44.794;10.344;2024-02-14T01:54:27;101721.78;;;10.69;57.32
85669;BME280;76101;44.794;10.344;2024-02-14T01:57:27;101730.44;;;10.79;56.84
85669;BME280;76101;44.794;10.344;2024-02-14T02:00:28;101730.59;;;10.78;56.40
85669;BME280;76101;44.794;10.344;2024-02-14T02:03:29;101728.41;;;10.73;56.85
85669;BME280;76101;44.794;10.344;2024-02-14T02:06:33;101737.91;;;10.76;57.01
85669;BME280;76101;44.794;10.344;2024-02-14T02:09:33;101730.28;;;10.81;56.78
85669;BME280;76101;44.794;10.344;2024-02-14T02:12:34;101738.22;;;10.81;56.59
85669;BME280;76101;44.794;10.344;2024-02-14T02:15:34;101742.38;;;10.75;57.08
85669;BME280;76101;44.794;10.344;2024-02-14T02:18:35;101748.50;;;10.84;56.56
85669;BME280;76101;44.794;10.344;2024-02-14T02:21:36;101735.41;;;10.82;56.37
85669;BME280;76101;44.794;10.344;2024-02-14T02:24:37;101730.28;;;10.81;56.67
85669;BME280;76101;44.794;10.344;2024-02-14T02:27:37;101737.06;;;10.75;56.54
85669;BME280;76101;44.794;10.344;2024-02-14T02:30:38;101736.22;;;10.75;56.63
85669;BME280;76101;44.794;10.344;2024-02-14T02:33:38;101728.09;;;10.60;56.85
85669;BME280;76101;44.794;10.344;2024-02-14T02:36:40;101732.03;;;10.56;57.25
85669;BME280;76101;44.794;10.344;2024-02-14T02:39:41;101729.91;;;10.60;57.48
85669;BME280;76101;44.794;10.344;2024-02-14T02:42:41;101730.09;;;10.66;57.37
85669;BME280;76101;44.794;10.344;2024-02-14T02:45:42;101730.25;;;10.73;57.24
85669;BME280;76101;44.794;10.344;2024-02-14T02:48:42;101738.72;;;10.84;56.95
85669;BME280;76101;44.794;10.344;2024-02-14T02:51:43;101731.75;;;10.83;56.72
85669;BME280;76101;44.794;10.344;2024-02-14T02:54:43;101738.84;;;10.75;56.89
85669;BME280;76101;44.794;10.344;2024-02-14T02:57:44;101741.22;;;10.78;56.29
85669;BME280;76101;44.794;10.344;2024-02-14T03:00:45;101735.41;;;10.82;57.13
85669;BME280;76101;44.794;10.344;2024-02-14T03:03:46;101730.44;;;10.79;56.58
85669;BME280;76101;44.794;10.344;2024-02-14T03:06:46;101735.25;;;10.84;56.88
85669;BME280;76101;44.794;10.344;2024-02-14T03:09:47;101742.84;;;10.87;56.67
85669;BME280;76101;44.794;10.344;2024-02-14T03:12:48;101746.16;;;10.89;56.88
85669;BME280;76101;44.794;10.344;2024-02-14T03:15:49;101744.72;;;10.95;56.32
85669;BME280;76101;44.794;10.344;2024-02-14T03:18:49;101750.16;;;10.85;56.48
85669;BME280;76101;44.794;10.344;2024-02-14T03:21:50;101741.69;;;10.65;57.08
85669;BME280;76101;44.794;10.344;2024-02-14T03:24:50;101736.22;;;10.59;57.16
85669;BME280;76101;44.794;10.344;2024-02-14T03:27:51;101739.16;;;10.55;57.07
85669;BME280;76101;44.794;10.344;2024-02-14T03:30:53;101737.78;;;10.35;57.58
85669;BME280;76101;44.794;10.344;2024-02-14T03:33:53;101737.78;;;10.27;57.80
85669;BME280;76101;44.794;10.344;2024-02-14T03:36:54;101733.72;;;10.15;58.46
85669;BME280;76101;44.794;10.344;2024-02-14T03:39:54;101737.19;;;10.15;58.74
85669;BME280;76101;44.794;10.344;2024-02-14T03:42:55;101743.47;;;10.14;58.69
85669;BME280;76101;44.794;10.344;2024-02-14T03:45:55;101747.44;;;10.10;58.75
85669;BME280;76101;44.794;10.344;2024-02-14T03:48:56;101750.38;;;10.07;58.72
85669;BME280;76101;44.794;10.344;2024-02-14T03:51:56;101752.00;;;10.00;58.68
85669;BME280;76101;44.794;10.344;2024-02-14T03:54:57;101750.50;;;9.98;58.71
85669;BME280;76101;44.794;10.344;2024-02-14T03:57:58;101762.09;;;9.97;59.25
85669;BME280;76101;44.794;10.344;2024-02-14T04:00:59;101765.75;;;10.04;58.81
85669;BME280;76101;44.794;10.344;2024-02-14T04:03:59;101771.41;;;10.09;58.26
85669;BME280;76101;44.794;10.344;2024-02-14T04:07:00;101765.31;;;10.16;58.53
85669;BME280;76101;44.794;10.344;2024-02-14T04:10:01;101760.53;;;10.20;58.81
85669;BME280;76101;44.794;10.344;2024-02-14T04:13:03;101773.94;;;10.18;58.20
85669;BME280;76101;44.794;10.344;2024-02-14T04:16:04;101769.78;;;10.16;58.17
85669;BME280;76101;44.794;10.344;2024-02-14T04:19:04;101767.47;;;10.13;58.72
85669;BME280;76101;44.794;10.344;2024-02-14T04:22:04;101773.44;;;10.15;58.63
85669;BME280;76101;44.794;10.344;2024-02-14T04:25:07;101773.47;;;10.23;58.68
85669;BME280;76101;44.794;10.344;2024-02-14T04:28:08;101784.59;;;10.27;58.00
85669;BME280;76101;44.794;10.344;2024-02-14T04:31:08;101785.78;;;10.32;57.75
85669;BME280;76101;44.794;10.344;2024-02-14T04:34:21;101788.44;;;10.40;58.54
85669;BME280;76101;44.794;10.344;2024-02-14T04:37:22;101790.47;;;10.46;57.98
85669;BME280;76101;44.794;10.344;2024-02-14T04:40:22;101792.13;;;10.47;57.72
85669;BME280;76101;44.794;10.344;2024-02-14T04:43:22;101789.47;;;10.47;57.50
85669;BME280;76101;44.794;10.344;2024-02-14T04:46:23;101792.13;;;10.47;57.61
85669;BME280;76101;44.794;10.344;2024-02-14T04:49:23;101791.13;;;10.48;57.42
85669;BME280;76101;44.794;10.344;2024-02-14T04:52:24;101789.31;;;10.49;57.62
85669;BME280;76101;44.794;10.344;2024-02-14T04:55:25;101788.50;;;10.48;57.56
85669;BME280;76101;44.794;10.344;2024-02-14T04:58:25;101800.09;;;10.47;57.64
85669;BME280;76101;44.794;10.344;2024-02-14T05:01:27;101796.59;;;10.47;56.91
85669;BME280;76101;44.794;10.344;2024-02-14T05:04:27;101806.22;;;10.48;57.04
85669;BME280;76101;44.794;10.344;2024-02-14T05:07:28;101800.09;;;10.47;57.16
85669;BME280;76101;44.794;10.344;2024-02-14T05:10:28;101800.84;;;10.40;56.74
85669;BME280;76101;44.794;10.344;2024-02-14T05:13:28;101805.16;;;10.33;57.25
85669;BME280;76101;44.794;10.344;2024-02-14T05:16:29;101804.13;;;10.26;56.87
85669;BME280;76101;44.794;10.344;2024-02-14T05:19:29;101803.06;;;10.18;56.43
85669;BME280;76101;44.794;10.344;2024-02-14T05:22:30;101814.81;;;10.16;56.81
85669;BME280;76101;44.794;10.344;2024-02-14T05:25:30;101808.00;;;10.13;56.95
85669;BME280;76101;44.794;10.344;2024-02-14T05:28:33;101807.34;;;10.11;57.05
85669;BME280;76101;44.794;10.344;2024-02-14T05:31:44;101822.84;;;10.06;56.26
85669;BME280;76101;44.794;10.344;2024-02-14T05:34:45;101827.16;;;10.07;55.91
85669;BME280;76101;44.794;10.344;2024-02-14T05:37:45;101823.47;;;10.00;56.62
85669;BME280;76101;44.794;10.344;2024-02-14T05:40:49;101827.28;;;9.98;56.17
85669;BME280;76101;44.794;10.344;2024-02-14T05:43:50;101825.47;;;9.98;56.90
85669;BME280;76101;44.794;10.344;2024-02-14T05:46:50;101832.06;;;9.94;56.20
85669;BME280;76101;44.794;10.344;2024-02-14T05:49:50;101834.88;;;9.92;56.22
85669;BME280;76101;44.794;10.344;2024-02-14T05:52:51;101841.44;;;9.88;56.69
85669;BME280;76101;44.794;10.344;2024-02-14T05:55:51;101834.63;;;9.86;56.83
85669;BME280;76101;44.794;10.344;2024-02-14T05:58:52;101830.97;;;9.79;57.11
85669;BME280;76101;44.794;10.344;2024-02-14T06:01:52;101829.81;;;9.81;56.33
85669;BME280;76101;44.794;10.344;2024-02-14T06:04:53;101830.56;;;9.91;56.55
85669;BME280;76101;44.794;10.344;2024-02-14T06:07:53;101832.56;;;9.98;56.14
85669;BME280;76101;44.794;10.344;2024-02-14T06:10:54;101829.56;;;9.92;56.15
85669;BME280;76101;44.794;10.344;2024-02-14T06:13:54;101837.03;;;9.97;55.92
85669;BME280;76101;44.794;10.344;2024-02-14T06:16:55;101841.16;;;9.91;56.12
85669;BME280;76101;44.794;10.344;2024-02-14T06:19:55;101848.03;;;9.84;56.14
85669;BME280;76101;44.794;10.344;2024-02-14T06:22:57;101849.63;;;9.77;56.25
85669;BME280;76101;44.794;10.344;2024-02-14T06:25:58;101861.50;;;9.73;56.08
85669;BME280;76101;44.794;10.344;2024-02-14T06:28:58;101868.41;;;9.66;56.03
85669;BME280;76101;44.794;10.344;2024-02-14T06:31:59;101870.84;;;9.59;56.19
85669;BME280;76101;44.794;10.344;2024-02-14T06:34:59;101868.25;;;9.68;56.24
85669;BME280;76101;44.794;10.344;2024-02-14T06:37:59;101874.84;;;9.63;56.41
85669;BME280;76101;44.794;10.344;2024-02-14T06:41:00;101876.34;;;9.66;56.15
85669;BME280;76101;44.794;10.344;2024-02-14T06:44:04;101888.91;;;9.64;56.08
85669;BME280;76101;44.794;10.344;2024-02-14T06:47:05;101894.69;;;9.68;56.12
85669;BME280;76101;44.794;10.344;2024-02-14T06:50:06;101892.44;;;9.55;56.39
85669;BME280;76101;44.794;10.344;2024-02-14T06:53:07;101899.09;;;9.59;55.93
85669;BME280;76101;44.794;10.344;2024-02-14T06:56:07;101897.88;;;9.53;55.95
85669;BME280;76101;44.794;10.344;2024-02-14T06:59:08;101911.56;;;9.49;56.14
85669;BME280;76101;44.794;10.344;2024-02-14T07:02:08;101912.34;;;9.59;56.07
85669;BME280;76101;44.794;10.344;2024-02-14T07:05:08;101914.81;;;9.60;56.50
85669;BME280;76101;44.794;10.344;2024-02-14T07:08:12;101908.56;;;9.61;56.18
85669;BME280;76101;44.794;10.344;2024-02-14T07:11:13;101914.66;;;9.80;55.70
85669;BME280;76101;44.794;10.344;2024-02-14T07:14:14;101920.09;;;9.78;55.81
85669;BME280;76101;44.794;10.344;2024-02-14T07:17:17;101926.22;;;9.79;55.74
85669;BME280;76101;44.794;10.344;2024-02-14T07:20:17;101931.22;;;9.82;55.07
85669;BME280;76101;44.794;10.344;2024-02-14T07:23:19;101916.78;;;9.76;55.31
85669;BME280;76101;44.794;10.344;2024-02-14T07:26:19;101920.03;;;9.70;55.44
85669;BME280;76101;44.794;10.344;2024-02-14T07:29:23;101934.38;;;9.85;55.30
85669;BME280;76101;44.794;10.344;2024-02-14T07:32:24;101938.53;;;9.88;55.65
85669;BME280;76101;44.794;10.344;2024-02-14T07:35:27;101939.91;;;9.92;55.19
85669;BME280;76101;44.794;10.344;2024-02-14T07:38:29;101943.75;;;9.98;54.55
85669;BME280;76101;44.794;10.344;2024-02-14T07:41:33;101951.69;;;9.98;54.91
85669;BME280;76101;44.794;10.344;2024-02-14T07:44:33;101955.09;;;10.08;54.66
85669;BME280;76101;44.794;10.344;2024-02-14T07:47:36;101968.09;;;10.01;55.06
85669;BME280;76101;44.794;10.344;2024-02-14T07:50:37;101965.75;;;10.16;54.42
85669;BME280;76101;44.794;10.344;2024-02-14T07:53:38;101969.16;;;10.08;54.31
85669;BME280;76101;44.794;10.344;2024-02-14T07:56:38;101958.25;;;10.11;54.78
85669;BME280;76101;44.794;10.344;2024-02-14T07:59:39;101965.38;;;10.29;53.70
85669;BME280;76101;44.794;10.344;2024-02-14T08:02:39;101976.56;;;10.22;53.53
85669;BME280;76101;44.794;10.344;2024-02-14T08:05:40;101985.34;;;10.23;53.91
85669;BME280;76101;44.794;10.344;2024-02-14T08:08:42;101985.78;;;10.36;53.80
85669;BME280;76101;44.794;10.344;2024-02-14T08:11:43;101989.31;;;10.45;53.42
85669;BME280;76101;44.794;10.344;2024-02-14T08:14:44;101987.31;;;10.21;54.12
85669;BME280;76101;44.794;10.344;2024-02-14T08:17:44;101984.94;;;10.18;54.39
85669;BME280;76101;44.794;10.344;2024-02-14T08:20:45;101983.09;;;10.28;54.41
85669;BME280;76101;44.794;10.344;2024-02-14T08:23:45;101989.84;;;10.48;52.79
85669;BME280;76101;44.794;10.344;2024-02-14T08:26:46;101993.34;;;10.57;51.82
85669;BME280;76101;44.794;10.344;2024-02-14T08:29:46;101988.59;;;10.61;51.62
85669;BME280;76101;44.794;10.344;2024-02-14T08:32:47;101993.28;;;10.67;50.79
85669;BME280;76101;44.794;10.344;2024-02-14T08:35:47;101985.63;;;10.64;50.94
85669;BME280;76101;44.794;10.344;2024-02-14T08:38:48;101994.00;;;10.77;50.69
85669;BME280;76101;44.794;10.344;2024-02-14T08:41:48;101982.84;;;10.73;50.67
85669;BME280;76101;44.794;10.344;2024-02-14T08:44:56;101974.75;;;10.75;50.70
85669;BME280;76101;44.794;10.344;2024-02-14T08:48:08;101971.81;;;10.78;50.94
85669;BME280;76101;44.794;10.344;2024-02-14T08:55:06;101983.41;;;10.77;51.72
85669;BME280;76101;44.794;10.344;2024-02-14T08:58:09;101988.88;;;10.75;51.95
85669;BME280;76101;44.794;10.344;2024-02-14T09:01:10;101986.47;;;10.98;51.85
85669;BME280;76101;44.794;10.344;2024-02-14T09:04:11;101991.13;;;11.04;51.56
85669;BME280;76101;44.794;10.344;2024-02-14T09:07:11;101986.88;;;11.20;51.66
85669;BME280;76101;44.794;10.344;2024-02-14T09:10:13;101990.88;;;11.24;51.53
85669;BME280;76101;44.794;10.344;2024-02-14T09:13:14;101986.63;;;11.39;51.24
85669;BME280;76101;44.794;10.344;2024-02-14T09:16:14;101985.00;;;11.46;50.78
85669;BME280;76101;44.794;10.344;2024-02-14T09:19:18;101989.66;;;11.52;50.54
85669;BME280;76101;44.794;10.344;2024-02-14T09:22:18;101987.31;;;11.57;50.22
85669;BME280;76101;44.794;10.344;2024-02-14T09:25:21;101977.06;;;11.62;50.20
85669;BME280;76101;44.794;10.344;2024-02-14T09:28:23;101988.41;;;11.81;49.41
85669;BME280;76101;44.794;10.344;2024-02-14T09:31:25;101995.88;;;11.85;49.66
85669;BME280;76101;44.794;10.344;2024-02-14T09:34:25;101989.41;;;11.80;49.42
85669;BME280;76101;44.794;10.344;2024-02-14T09:37:27;101983.41;;;11.78;48.69
85669;BME280;76101;44.794;10.344;2024-02-14T09:40:28;101986.25;;;11.92;48.75
85669;BME280;76101;44.794;10.344;2024-02-14T09:43:38;101984.78;;;11.98;48.19
85669;BME280;76101;44.794;10.344;2024-02-14T09:46:41;101981.47;;;12.12;48.40
85669;BME280;76101;44.794;10.344;2024-02-14T09:49:42;101974.31;;;12.21;48.33
85669;BME280;76101;44.794;10.344;2024-02-14T09:52:47;101994.06;;;12.18;48.97
85669;BME280;76101;44.794;10.344;2024-02-14T09:55:49;101993.22;;;12.34;48.70
85669;BME280;76101;44.794;10.344;2024-02-14T09:58:50;101997.03;;;12.40;47.80
85669;BME280;76101;44.794;10.344;2024-02-14T10:01:56;101983.41;;;12.43;47.31
85669;BME280;76101;44.794;10.344;2024-02-14T10:04:56;101986.91;;;12.43;47.38
85669;BME280;76101;44.794;10.344;2024-02-14T10:07:57;101977.13;;;12.44;47.48
85669;BME280;76101;44.794;10.344;2024-02-14T10:10:58;101983.75;;;12.48;47.69
85669;BME280;76101;44.794;10.344;2024-02-14T10:13:59;101984.38;;;12.58;47.92
85669;BME280;76101;44.794;10.344;2024-02-14T10:17:04;101975.06;;;12.70;47.88
85669;BME280;76101;44.794;10.344;2024-02-14T10:20:05;101988.34;;;12.78;47.94
85669;BME280;76101;44.794;10.344;2024-02-14T10:23:05;101981.16;;;12.87;47.46
85669;BME280;76101;44.794;10.344;2024-02-14T10:26:06;101975.00;;;12.94;47.38
85669;BME280;76101;44.794;10.344;2024-02-14T10:29:07;101978.59;;;13.02;47.43
85669;BME280;76101;44.794;10.344;2024-02-14T10:32:14;101967.59;;;13.13;46.89
85669;BME280;76101;44.794;10.344;2024-02-14T10:35:15;101957.59;;;13.15;46.97
85669;BME280;76101;44.794;10.344;2024-02-14T10:38:17;101964.25;;;13.19;47.08
85669;BME280;76101;44.794;10.344;2024-02-14T10:41:18;101959.75;;;13.28;47.03
85669;BME280;76101;44.794;10.344;2024-02-14T10:44:19;101962.16;;;13.37;46.47
85669;BME280;76101;44.794;10.344;2024-02-14T10:47:20;101961.94;;;13.47;46.28
85669;BME280;76101;44.794;10.344;2024-02-14T10:50:21;101966.69;;;13.60;45.90
85669;BME280;76101;44.794;10.344;2024-02-14T10:53:25;101963.06;;;13.52;45.78
85669;BME280;76101;44.794;10.344;2024-02-14T10:56:28;101948.53;;;13.63;46.01
85669;BME280;76101;44.794;10.344;2024-02-14T10:59:29;101943.13;;;13.71;45.44
85669;BME280;76101;44.794;10.344;2024-02-14T11:02:31;101947.78;;;13.77;45.49
85669;BME280;76101;44.794;10.344;2024-02-14T11:05:45;101943.38;;;13.84;45.21
85669;BME280;76101;44.794;10.344;2024-02-14T11:09:00;101951.97;;;13.95;44.39
85669;BME280;76101;44.794;10.344;2024-02-14T11:12:01;101953.47;;;13.89;44.99
85669;BME280;76101;44.794;10.344;2024-02-14T11:15:22;101948.47;;;13.94;44.47
85669;BME280;76101;44.794;10.344;2024-02-14T11:18:25;101946.59;;;14.18;44.41
85669;BME280;76101;44.794;10.344;2024-02-14T11:21:29;101946.66;;;14.09;44.74
85669;BME280;76101;44.794;10.344;2024-02-14T11:24:30;101947.03;;;14.21;44.78
85669;BME280;76101;44.794;10.344;2024-02-14T11:27:32;101951.75;;;14.34;44.35
85669;BME280;76101;44.794;10.344;2024-02-14T11:30:35;101955.34;;;14.41;44.94
85669;BME280;76101;44.794;10.344;2024-02-14T11:33:36;101944.41;;;14.36;44.83
85669;BME280;76101;44.794;10.344;2024-02-14T11:36:37;101939.00;;;14.29;45.44
85669;BME280;76101;44.794;10.344;2024-02-14T11:39:38;101943.41;;;14.37;44.88
85669;BME280;76101;44.794;10.344;2024-02-14T11:42:39;101928.19;;;14.46;43.81
85669;BME280;76101;44.794;10.344;2024-02-14T11:45:44;101937.94;;;14.53;44.53
85669;BME280;76101;44.794;10.344;2024-02-14T11:48:45;101938.00;;;14.60;44.46
85669;BME280;76101;44.794;10.344;2024-02-14T11:51:46;101935.53;;;14.58;44.77
85669;BME280;76101;44.794;10.344;2024-02-14T11:54:48;101936.91;;;14.69;44.67
85669;BME280;76101;44.794;10.344;2024-02-14T11:57:59;101930.50;;;14.63;44.73
85669;BME280;76101;44.794;10.344;2024-02-14T12:01:03;101917.88;;;14.72;45.07
85669;BME280;76101;44.794;10.344;2024-02-14T12:04:05;101918.59;;;14.81;44.13
85669;BME280;76101;44.794;10.344;2024-02-14T12:07:08;101925.97;;;14.79;44.03
85669;BME280;76101;44.794;10.344;2024-02-14T12:10:09;101911.63;;;14.80;44.11
85669;BME280;76101;44.794;10.344;2024-02-14T12:13:14;101911.25;;;14.83;44.52
85669;BME280;76101;44.794;10.344;2024-02-14T12:16:14;101900.28;;;14.78;44.04
85669;BME280;76101;44.794;10.344;2024-02-14T12:19:16;101892.03;;;14.72;44.13
85669;BME280;76101;44.794;10.344;2024-02-14T12:22:16;101889.16;;;14.89;44.05
85669;BME280;76101;44.794;10.344;2024-02-14T12:25:20;101882.69;;;14.98;44.57
85669;BME280;76101;44.794;10.344;2024-02-14T12:28:21;101891.50;;;15.13;43.82
85669;BME280;76101;44.794;10.344;2024-02-14T12:31:23;101877.13;;;15.14;43.96
85669;BME280;76101;44.794;10.344;2024-02-14T12:34:23;101872.69;;;15.21;43.99
85669;BME280;76101;44.794;10.344;2024-02-14T12:37:24;101863.53;;;15.30;44.14
85669;BME280;76101;44.794;10.344;2024-02-14T12:40:24;101866.69;;;15.41;43.93
85669;BME280;76101;44.794;10.344;2024-02-14T12:43:25;101864.31;;;15.46;43.62
85669;BME280;76101;44.794;10.344;2024-02-14T12:46:26;101859.91;;;15.59;43.20
85669;BME280;76101;44.794;10.344;2024-02-14T12:49:26;101854.56;;;15.59;42.24
85669;BME280;76101;44.794;10.344;2024-02-14T12:52:27;101855.47;;;15.67;42.34
85669;BME280;76101;44.794;10.344;2024-02-14T12:55:28;101858.81;;;15.75;41.90
85669;BME280;76101;44.794;10.344;2024-02-14T12:58:28;101861.75;;;15.80;41.63
85669;BME280;76101;44.794;10.344;2024-02-14T13:01:29;101853.16;;;15.85;41.84
85669;BME280;76101;44.794;10.344;2024-02-14T13:04:29;101847.22;;;15.89;41.65
85669;BME280;76101;44.794;10.344;2024-02-14T13:07:31;101850.28;;;15.86;41.54
85669;BME280;76101;44.794;10.344;2024-02-14T13:10:32;101855.84;;;15.91;41.13
85669;BME280;76101;44.794;10.344;2024-02-14T13:13:32;101858.59;;;15.98;41.24
85669;BME280;76101;44.794;10.344;2024-02-14T13:16:32;101861.91;;;16.00;40.81
85669;BME280;76101;44.794;10.344;2024-02-14T13:19:33;101865.22;;;16.09;39.91
85669;BME280;76101;44.794;10.344;2024-02-14T13:22:33;101854.72;;;16.07;40.95
85669;BME280;76101;44.794;10.344;2024-02-14T13:25:34;101857.84;;;16.11;40.71
85669;BME280;76101;44.794;10.344;2024-02-14T13:28:34;101843.28;;;16.13;40.65
85669;BME280;76101;44.794;10.344;2024-02-14T13:31:35;101837.47;;;16.10;40.22
85669;BME280;76101;44.794;10.344;2024-02-14T13:34:35;101834.47;;;16.19;41.16
85669;BME280;76101;44.794;10.344;2024-02-14T13:37:36;101837.16;;;16.26;41.46
85669;BME280;76101;44.794;10.344;2024-02-14T13:40:36;101831.47;;;16.36;41.41
85669;BME280;76101;44.794;10.344;2024-02-14T13:43:36;101833.72;;;16.39;41.15
85669;BME280;76101;44.794;10.344;2024-02-14T13:46:37;101841.59;;;16.47;41.80
85669;BME280;76101;44.794;10.344;2024-02-14T13:49:37;101842.44;;;16.54;41.59
85669;BME280;76101;44.794;10.344;2024-02-14T13:52:38;101835.44;;;16.46;41.32
85669;BME280;76101;44.794;10.344;2024-02-14T13:55:38;101828.06;;;16.55;41.13
85669;BME280;76101;44.794;10.344;2024-02-14T13:58:39;101828.44;;;16.52;41.69
85669;BME280;76101;44.794;10.344;2024-02-14T14:01:40;101825.34;;;16.48;41.13
85669;BME280;76101;44.794;10.344;2024-02-14T14:04:40;101833.94;;;16.37;41.04
85669;BME280;76101;44.794;10.344;2024-02-14T14:07:41;101823.53;;;16.55;40.69
85669;BME280;76101;44.794;10.344;2024-02-14T14:10:42;101830.13;;;16.60;40.77
85669;BME280;76101;44.794;10.344;2024-02-14T14:13:43;101820.94;;;16.75;40.29
85669;BME280;76101;44.794;10.344;2024-02-14T14:16:43;101821.56;;;16.71;40.68
85669;BME280;76101;44.794;10.344;2024-02-14T14:19:44;101822.59;;;16.70;39.50
85669;BME280;76101;44.794;10.344;2024-02-14T14:22:44;101826.28;;;16.69;39.59
85669;BME280;76101;44.794;10.344;2024-02-14T14:25:44;101820.97;;;16.82;40.13
85669;BME280;76101;44.794;10.344;2024-02-14T14:28:45;101816.22;;;16.77;39.95
85669;BME280;76101;44.794;10.344;2024-02-14T14:31:46;101822.22;;;16.86;40.21
85669;BME280;76101;44.794;10.344;2024-02-14T14:34:47;101822.44;;;16.91;39.58
85669;BME280;76101;44.794;10.344;2024-02-14T14:37:47;101820.59;;;16.92;39.41
85669;BME280;76101;44.794;10.344;2024-02-14T14:40:48;101814.63;;;16.96;38.42
85669;BME280;76101;44.794;10.344;2024-02-14T14:43:48;101810.53;;;17.00;38.86
85669;BME280;76101;44.794;10.344;2024-02-14T14:46:49;101802.09;;;17.03;39.46
85669;BME280;76101;44.794;10.344;2024-02-14T14:49:50;101798.38;;;17.11;39.01
85669;BME280;76101;44.794;10.344;2024-02-14T14:52:51;101805.59;;;17.24;39.31
85669;BME280;76101;44.794;10.344;2024-02-14T14:55:56;101806.44;;;17.24;38.79
85669;BME280;76101;44.794;10.344;2024-02-14T14:58:57;101802.09;;;17.30;38.47
85669;BME280;76101;44.794;10.344;2024-02-14T15:01:59;101804.78;;;17.36;38.74
85669;BME280;76101;44.794;10.344;2024-02-14T15:04:59;101812.81;;;17.43;38.54
85669;BME280;76101;44.794;10.344;2024-02-14T15:08:00;101807.03;;;17.46;38.30
85669;BME280;76101;44.794;10.344;2024-02-14T15:11:00;101816.34;;;17.50;37.84
85669;BME280;76101;44.794;10.344;2024-02-14T15:14:01;101815.94;;;17.53;37.68
85669;BME280;76101;44.794;10.344;2024-02-14T15:17:01;101810.34;;;17.55;37.41
85669;BME280;76101;44.794;10.344;2024-02-14T15:20:02;101814.47;;;17.57;37.61
85669;BME280;76101;44.794;10.344;2024-02-14T15:23:04;101817.78;;;17.59;37.46
85669;BME280;76101;44.794;10.344;2024-02-14T15:26:04;101822.09;;;17.60;37.88
85669;BME280;76101;44.794;10.344;2024-02-14T15:29:06;101824.78;;;17.60;38.56
85669;BME280;76101;44.794;10.344;2024-02-14T15:32:25;101817.16;;;17.64;38.45
85669;BME280;76101;44.794;10.344;2024-02-14T15:35:44;101825.81;;;17.66;37.89
85669;BME280;76101;44.794;10.344;2024-02-14T15:38:44;101821.94;;;17.68;37.28
85669;BME280;76101;44.794;10.344;2024-02-14T15:41:44;101823.16;;;17.72;37.23